Time;durP1;ratioP1;P1;durP2;ratioP2;P2;SDS_P1;SDS_P2;PMS_P1;PMS_P2;Temp;Humidity;BMP_temperature;BMP_pressure;BME280_temperature;BME280_humidity;BME280_pressure;Samples;Min_cycle;Max_cycle;Signal;HPM_P1;HPM_P2
2021/08/14 00:01:46;;;;;;;42.15;20.65;;;24.70;27.10;;;;;;4352911;32;20106;-70
2021/08/14 00:04:12;;;;;;;39.65;20.33;;;24.70;27.20;;;;;;4341746;32;20082;-70
2021/08/14 00:06:38;;;;;;;42.58;21.20;;;24.60;27.00;;;;;;4392199;32;20074;-70
2021/08/14 00:09:04;;;;;;;40.08;21.00;;;24.60;27.20;;;;;;4353534;32;20078;-70
2021/08/14 00:11:31;;;;;;;38.95;20.27;;;24.60;27.00;;;;;;4353121;32;20089;-70
2021/08/14 00:13:57;;;;;;;42.72;21.05;;;24.60;26.90;;;;;;4365460;32;20119;-70
2021/08/14 00:16:23;;;;;;;39.90;20.25;;;24.60;26.80;;;;;;4378210;32;20078;-70
2021/08/14 00:18:49;;;;;;;37.65;19.40;;;24.60;26.60;;;;;;4377643;32;20081;-70
2021/08/14 00:21:16;;;;;;;40.92;21.37;;;24.50;26.60;;;;;;4365186;32;20238;-70
2021/08/14 00:23:42;;;;;;;38.40;18.90;;;24.50;26.50;;;;;;4340864;32;20084;-69
2021/08/14 00:26:08;;;;;;;37.42;19.42;;;24.50;26.50;;;;;;4353373;32;20065;-70
2021/08/14 00:28:34;;;;;;;40.17;20.65;;;24.50;26.60;;;;;;4340471;32;20179;-68
2021/08/14 00:31:00;;;;;;;45.30;21.45;;;24.40;27.00;;;;;;4391606;32;20166;-69
2021/08/14 00:33:26;;;;;;;40.30;20.67;;;24.40;27.00;;;;;;4391568;32;20514;-70
2021/08/14 00:35:52;;;;;;;42.95;20.85;;;24.40;27.10;;;;;;4365259;32;20085;-70
2021/08/14 00:38:19;;;;;;;40.58;21.30;;;24.30;27.20;;;;;;4377419;32;20104;-70
2021/08/14 00:40:45;;;;;;;40.70;20.50;;;24.30;27.10;;;;;;4365295;32;20074;-70
2021/08/14 00:43:11;;;;;;;43.90;20.73;;;24.30;28.10;;;;;;4364849;32;20093;-70
2021/08/14 00:45:42;;;;;;;40.17;20.58;;;24.30;27.10;;;;;;4377630;32;20072;-70
2021/08/14 00:48:09;;;;;;;42.85;21.05;;;24.30;27.00;;;;;;4353009;32;20084;-70
2021/08/14 00:50:36;;;;;;;39.13;20.83;;;24.30;27.10;;;;;;4340802;32;20082;-70
2021/08/14 00:53:04;;;;;;;39.28;20.12;;;24.30;27.30;;;;;;4378465;32;20080;-70
2021/08/14 00:55:30;;;;;;;40.25;21.00;;;24.30;27.40;;;;;;4365229;32;20066;-70
2021/08/14 00:57:56;;;;;;;42.90;21.70;;;24.30;27.40;;;;;;4365207;32;20058;-70
2021/08/14 01:00:24;;;;;;;44.17;21.73;;;24.30;27.20;;;;;;4352783;32;20072;-72
2021/08/14 01:02:52;;;;;;;39.00;19.17;;;24.30;27.40;;;;;;4353385;32;20092;-70
2021/08/14 01:05:19;;;;;;;41.45;20.52;;;24.30;27.50;;;;;;4340920;32;20100;-69
2021/08/14 01:07:45;;;;;;;42.55;21.08;;;24.30;27.40;;;;;;4391090;32;20066;-70
2021/08/14 01:10:11;;;;;;;39.40;19.92;;;24.30;27.50;;;;;;4377376;32;20063;-70
2021/08/14 01:12:37;;;;;;;42.30;21.85;;;24.30;27.40;;;;;;4364846;32;20228;-70
2021/08/14 01:15:05;;;;;;;42.58;21.83;;;24.30;27.40;;;;;;4352922;32;20070;-71
2021/08/14 01:17:31;;;;;;;40.25;19.48;;;24.20;27.40;;;;;;4353061;32;20492;-70
2021/08/14 01:19:57;;;;;;;42.75;20.33;;;24.20;27.50;;;;;;4352493;32;20082;-70
2021/08/14 01:22:23;;;;;;;38.80;19.05;;;24.20;27.80;;;;;;4364876;32;20108;-70
2021/08/14 01:24:49;;;;;;;38.75;20.73;;;24.20;27.80;;;;;;4364708;32;20186;-70
2021/08/14 01:27:16;;;;;;;40.03;20.40;;;24.20;27.90;;;;;;4352594;32;20090;-70
2021/08/14 01:29:42;;;;;;;41.65;21.27;;;24.20;28.10;;;;;;4364963;32;20093;-70
2021/08/14 01:32:09;;;;;;;39.90;20.05;;;24.10;28.40;;;;;;4391112;32;20091;-70
2021/08/14 01:34:40;;;;;;;41.75;20.17;;;24.10;28.50;;;;;;4352645;32;20062;-70
2021/08/14 01:37:08;;;;;;;39.25;20.60;;;24.00;28.70;;;;;;4364680;32;20523;-69
2021/08/14 01:39:34;;;;;;;41.70;20.83;;;24.00;29.00;;;;;;4352573;32;20089;-69
2021/08/14 01:42:06;;;;;;;45.25;22.48;;;23.90;29.60;;;;;;4364530;32;20189;-69
2021/08/14 01:44:33;;;;;;;43.60;20.95;;;23.90;29.50;;;;;;4352746;32;20085;-70
2021/08/14 01:47:01;;;;;;;41.53;21.12;;;24.00;29.60;;;;;;4364933;32;20508;-69
2021/08/14 01:49:27;;;;;;;44.70;20.77;;;24.00;29.80;;;;;;4365737;32;20568;-70
2021/08/14 01:51:53;;;;;;;40.92;20.67;;;24.00;30.00;;;;;;4379946;32;20512;-69
2021/08/14 01:54:20;;;;;;;39.38;20.55;;;23.90;30.00;;;;;;4367851;32;20504;-70
2021/08/14 01:56:47;;;;;;;42.95;21.23;;;23.90;30.20;;;;;;4342931;32;20085;-70
2021/08/14 01:59:13;;;;;;;37.08;19.80;;;23.90;30.80;;;;;;4342946;32;20063;-70
2021/08/14 02:01:39;;;;;;;43.25;20.65;;;23.90;31.30;;;;;;4354812;32;20074;-69
2021/08/14 02:04:06;;;;;;;41.13;20.48;;;23.80;31.70;;;;;;4367563;32;20093;-69
2021/08/14 02:06:32;;;;;;;39.30;19.40;;;23.70;32.40;;;;;;4393445;32;20081;-70
2021/08/14 02:08:58;;;;;;;39.97;20.30;;;23.70;32.40;;;;;;4367519;32;20161;-68
2021/08/14 02:11:33;;;;;;;39.22;19.23;;;23.60;33.30;;;;;;4379758;32;20201;-70
2021/08/14 02:13:59;;;;;;;40.47;21.12;;;23.70;33.10;;;;;;4368678;32;20082;-70
2021/08/14 02:16:25;;;;;;;41.42;21.02;;;23.70;33.30;;;;;;4355157;32;20089;-69
2021/08/14 02:18:52;;;;;;;40.42;19.90;;;23.70;33.30;;;;;;4342213;32;20066;-69
2021/08/14 02:21:18;;;;;;;38.65;21.10;;;23.60;33.90;;;;;;4354805;32;20073;-68
2021/08/14 02:23:44;;;;;;;36.00;19.02;;;23.70;32.70;;;;;;4354723;32;20074;-70
2021/08/14 02:26:10;;;;;;;42.40;20.55;;;23.80;32.90;;;;;;4366927;32;20089;-70
2021/08/14 02:28:36;;;;;;;42.47;19.67;;;23.70;32.80;;;;;;4355285;32;20080;-70
2021/08/14 02:31:03;;;;;;;43.90;21.27;;;23.80;32.40;;;;;;4354362;32;20062;-70
2021/08/14 02:33:30;;;;;;;39.75;21.20;;;23.70;32.70;;;;;;4355114;32;20158;-70
2021/08/14 02:35:56;;;;;;;40.90;20.88;;;23.80;32.80;;;;;;4342350;32;20078;-70
2021/08/14 02:38:22;;;;;;;40.15;20.40;;;23.70;33.60;;;;;;4366700;32;20088;-70
2021/08/14 02:40:49;;;;;;;36.03;17.35;;;23.70;33.80;;;;;;4354514;32;20470;-70
2021/08/14 02:43:15;;;;;;;39.78;20.62;;;23.70;34.50;;;;;;4366900;32;20105;-69
2021/08/14 02:45:41;;;;;;;38.25;20.17;;;23.60;34.80;;;;;;4354324;32;20467;-71
2021/08/14 02:48:09;;;;;;;39.53;19.87;;;23.60;35.20;;;;;;4393056;32;20082;-70
2021/08/14 02:50:35;;;;;;;38.58;19.67;;;23.40;37.60;;;;;;4379055;32;20085;-70
2021/08/14 02:53:01;;;;;;;42.03;19.37;;;23.40;37.90;;;;;;4341967;32;20074;-70
2021/08/14 02:55:28;;;;;;;37.50;19.23;;;23.40;38.60;;;;;;4367319;32;20230;-70
2021/08/14 02:57:54;;;;;;;39.47;18.85;;;23.40;38.70;;;;;;4342149;32;20598;-69
2021/08/14 03:00:20;;;;;;;39.42;20.37;;;23.40;38.80;;;;;;4366503;32;20105;-69
2021/08/14 03:02:46;;;;;;;41.70;20.83;;;23.40;39.60;;;;;;4366067;32;20085;-70
2021/08/14 03:05:12;;;;;;;40.50;20.62;;;23.50;38.90;;;;;;4367258;32;20062;-70
2021/08/14 03:07:39;;;;;;;43.15;20.08;;;23.80;38.00;;;;;;4354495;32;20086;-70
2021/08/14 03:10:05;;;;;;;42.60;21.25;;;23.80;36.60;;;;;;4366669;32;20097;-70
2021/08/14 03:12:32;;;;;;;37.92;21.00;;;23.80;35.10;;;;;;4353899;32;20085;-69
2021/08/14 03:14:58;;;;;;;36.90;19.05;;;24.00;35.20;;;;;;4342038;32;20509;-69
2021/08/14 03:17:24;;;;;;;36.08;20.10;;;24.10;33.60;;;;;;4366458;32;20168;-70
2021/08/14 03:19:50;;;;;;;37.90;20.10;;;24.40;32.90;;;;;;4354323;32;20078;-70
2021/08/14 03:22:17;;;;;;;39.53;21.00;;;24.50;32.00;;;;;;4366141;32;20441;-70
2021/08/14 03:24:43;;;;;;;42.17;22.17;;;24.50;32.30;;;;;;4366238;32;20093;-70
2021/08/14 03:27:09;;;;;;;43.00;21.55;;;24.60;32.20;;;;;;4392360;32;20097;-70
2021/08/14 03:29:35;;;;;;;39.40;20.85;;;24.60;31.80;;;;;;4366396;32;20128;-70
2021/08/14 03:32:02;;;;;;;39.15;20.80;;;24.60;31.70;;;;;;4354062;32;20496;-70
2021/08/14 03:34:28;;;;;;;42.20;21.42;;;24.50;31.20;;;;;;4341785;32;20084;-70
2021/08/14 03:36:54;;;;;;;38.70;20.30;;;24.70;31.10;;;;;;4366240;32;20171;-70
2021/08/14 03:39:21;;;;;;;42.17;21.35;;;24.80;31.00;;;;;;4378535;32;20151;-70
2021/08/14 03:41:47;;;;;;;41.67;21.20;;;24.90;30.60;;;;;;4378396;32;20150;-70
2021/08/14 03:44:13;;;;;;;41.63;20.83;;;25.10;30.20;;;;;;4353358;32;20062;-70
2021/08/14 03:46:39;;;;;;;39.55;21.20;;;25.10;30.70;;;;;;4365599;32;20169;-69
2021/08/14 03:49:05;;;;;;;44.88;22.90;;;25.10;30.70;;;;;;4392534;32;20077;-70
2021/08/14 03:51:31;;;;;;;45.55;23.15;;;24.90;30.30;;;;;;4341794;32;20076;-70
2021/08/14 03:53:57;;;;;;;39.45;20.62;;;24.90;31.50;;;;;;4365534;32;20082;-69
2021/08/14 03:56:24;;;;;;;39.17;20.80;;;24.90;31.20;;;;;;4365797;32;20496;-70
2021/08/14 03:58:50;;;;;;;41.60;20.35;;;25.00;31.00;;;;;;4365758;32;20080;-70
2021/08/14 04:01:16;;;;;;;35.67;19.92;;;25.20;30.70;;;;;;4365639;32;20078;-69
2021/08/14 04:03:42;;;;;;;35.58;19.95;;;25.00;30.80;;;;;;4377782;32;20513;-70
2021/08/14 04:06:08;;;;;;;40.78;20.52;;;25.20;30.30;;;;;;4353480;32;20061;-70
2021/08/14 04:08:35;;;;;;;44.17;22.62;;;25.50;30.00;;;;;;4377989;32;20069;-69
2021/08/14 04:11:01;;;;;;;35.33;20.20;;;25.40;30.10;;;;;;4365402;32;20058;-70
2021/08/14 04:13:27;;;;;;;37.20;20.12;;;25.20;30.50;;;;;;4352829;32;20073;-70
2021/08/14 04:15:53;;;;;;;38.80;19.87;;;25.40;30.50;;;;;;4377844;32;20509;-70
2021/08/14 04:18:19;;;;;;;39.33;21.12;;;25.40;30.60;;;;;;4353451;32;20074;-69
2021/08/14 04:20:45;;;;;;;39.17;21.27;;;25.20;30.70;;;;;;4378128;32;20145;-70
2021/08/14 04:23:12;;;;;;;37.72;20.42;;;25.00;31.50;;;;;;4341155;32;20097;-70
2021/08/14 04:25:38;;;;;;;41.17;21.00;;;25.00;31.80;;;;;;4340459;32;20464;-70
2021/08/14 04:28:04;;;;;;;37.55;19.52;;;25.10;31.80;;;;;;4377422;32;20504;-69
2021/08/14 04:30:30;;;;;;;39.60;20.92;;;25.20;31.70;;;;;;4391581;32;20084;-70
2021/08/14 04:32:56;;;;;;;37.92;18.05;;;25.10;35.70;;;;;;4352809;32;20082;-69
2021/08/14 04:35:23;;;;;;;52.22;24.40;;;24.80;38.00;;;;;;4377583;32;20069;-70
2021/08/14 04:37:49;;;;;;;52.00;25.48;;;24.90;39.00;;;;;;4365259;32;20080;-70
2021/08/14 04:40:15;;;;;;;55.08;26.17;;;24.80;40.30;;;;;;4377494;32;20081;-69
2021/08/14 04:42:42;;;;;;;50.78;25.27;;;24.70;40.70;;;;;;4352533;32;20160;-70
2021/08/14 04:45:09;;;;;;;50.35;25.02;;;24.90;40.10;;;;;;4353000;32;20165;-70
2021/08/14 04:47:35;;;;;;;48.97;24.95;;;25.00;39.20;;;;;;4352704;32;20500;-69
2021/08/14 04:50:02;;;;;;;38.67;21.37;;;26.40;35.60;;;;;;4340736;32;20480;-69
2021/08/14 04:52:28;;;;;;;47.78;23.98;;;25.90;35.60;;;;;;4352946;32;20184;-69
2021/08/14 04:54:55;;;;;;;42.50;23.45;;;26.40;34.40;;;;;;4365255;32;20081;-70
2021/08/14 04:57:21;;;;;;;44.42;23.90;;;27.50;30.60;;;;;;4364580;32;20467;-70
2021/08/14 04:59:47;;;;;;;41.78;23.67;;;26.10;33.40;;;;;;4377455;32;20081;-70
2021/08/14 05:02:13;;;;;;;46.58;23.80;;;26.00;34.30;;;;;;4364569;32;20513;-70
2021/08/14 05:04:39;;;;;;;42.13;22.75;;;25.90;34.60;;;;;;4364865;32;20606;-69
2021/08/14 05:07:05;;;;;;;39.28;21.02;;;25.70;37.20;;;;;;4353869;32;20444;-71
2021/08/14 05:09:38;;;;;;;40.20;21.67;;;25.40;40.40;;;;;;4367785;32;20089;-72
2021/08/14 05:12:05;;;;;;;34.47;19.35;;;25.30;40.50;;;;;;4353808;32;20467;-69
2021/08/14 05:14:31;;;;;;;33.45;18.58;;;25.90;39.50;;;;;;4341281;32;20093;-70
2021/08/14 05:16:57;;;;;;;36.80;18.90;;;26.30;38.30;;;;;;4377528;32;20096;-70
2021/08/14 05:19:23;;;;;;;27.77;16.98;;;25.90;38.70;;;;;;4353078;32;20104;-70
2021/08/14 05:21:49;;;;;;;28.95;16.98;;;25.80;45.70;;;;;;4340737;32;20081;-70
2021/08/14 05:24:16;;;;;;;25.92;14.73;;;25.20;55.40;;;;;;4366611;32;20088;-70
2021/08/14 05:26:45;;;;;;;25.05;14.48;;;25.10;61.60;;;;;;4394865;32;20086;-70
2021/08/14 05:29:11;;;;;;;25.77;14.75;;;25.10;64.30;;;;;;4356728;32;20078;-70
2021/08/14 05:31:37;;;;;;;24.60;14.30;;;25.40;63.10;;;;;;4355644;32;20097;-70
2021/08/14 05:34:05;;;;;;;25.52;15.38;;;25.90;58.90;;;;;;4355271;32;20077;-70
2021/08/14 05:36:32;;;;;;;26.98;14.55;;;26.10;61.00;;;;;;4368235;32;20484;-69
2021/08/14 05:38:58;;;;;;;26.58;16.60;;;26.30;56.10;;;;;;4355214;32;20460;-70
2021/08/14 05:41:25;;;;;;;30.88;17.90;;;26.00;61.80;;;;;;4380069;32;20156;-70
2021/08/14 05:43:51;;;;;;;27.35;15.90;;;25.40;61.70;;;;;;4393806;32;20089;-70
2021/08/14 05:46:17;;;;;;;30.42;19.17;;;25.40;64.90;;;;;;4355551;32;20073;-69
2021/08/14 05:48:43;;;;;;;27.83;17.87;;;25.10;65.60;;;;;;4380265;32;20456;-70
2021/08/14 05:51:13;;;;;;;27.60;17.80;;;25.20;66.60;;;;;;4354969;32;20078;-70
2021/08/14 05:53:39;;;;;;;28.35;18.23;;;25.20;72.40;;;;;;4367425;32;20096;-70
2021/08/14 05:56:05;;;;;;;28.52;17.45;;;25.40;70.90;;;;;;4380046;32;20456;-69
2021/08/14 05:58:32;;;;;;;26.02;17.25;;;26.50;62.70;;;;;;4343024;32;20078;-70
2021/08/14 06:00:58;;;;;;;26.48;17.10;;;27.30;55.90;;;;;;4342936;32;20070;-70
2021/08/14 06:03:24;;;;;;;25.83;15.30;;;27.60;56.00;;;;;;4379897;32;20588;-71
2021/08/14 06:05:51;;;;;;;26.90;16.27;;;27.00;61.20;;;;;;4355504;32;20124;-70
2021/08/14 06:08:17;;;;;;;24.25;16.15;;;26.00;71.20;;;;;;4354854;32;20559;-70
2021/08/14 06:10:43;;;;;;;31.33;17.17;;;25.40;77.50;;;;;;4367605;32;20101;-70
2021/08/14 06:13:09;;;;;;;23.42;14.70;;;25.60;68.80;;;;;;4354975;32;20082;-70
2021/08/14 06:15:35;;;;;;;27.40;16.50;;;25.60;68.50;;;;;;4379502;32;20455;-70
2021/08/14 06:18:01;;;;;;;27.00;16.42;;;25.40;69.80;;;;;;4367073;32;20206;-70
2021/08/14 06:20:28;;;;;;;31.67;20.50;;;26.20;66.60;;;;;;4379661;32;20073;-70
2021/08/14 06:22:54;;;;;;;28.90;18.40;;;25.90;62.20;;;;;;4367041;32;20084;-70
2021/08/14 06:25:20;;;;;;;30.80;20.00;;;26.60;61.80;;;;;;4379294;32;20074;-70
2021/08/14 06:27:46;;;;;;;32.58;18.30;;;26.70;58.50;;;;;;4354859;32;20066;-70
2021/08/14 06:30:13;;;;;;;32.05;18.83;;;26.30;63.70;;;;;;4367211;32;20135;-70
2021/08/14 06:32:39;;;;;;;30.12;20.92;;;27.10;58.50;;;;;;4367222;32;20070;-70
2021/08/14 06:35:06;;;;;;;28.20;18.42;;;26.30;60.10;;;;;;4378685;32;20519;-70
2021/08/14 06:37:39;;;;;;;28.40;19.10;;;26.40;61.30;;;;;;4367141;32;20085;-70
2021/08/14 06:40:06;;;;;;;34.08;19.90;;;26.40;59.70;;;;;;4343212;32;20443;-70
2021/08/14 06:42:32;;;;;;;31.02;18.45;;;27.00;57.20;;;;;;4379058;32;20145;-70
2021/08/14 06:44:58;;;;;;;35.13;20.33;;;26.80;56.40;;;;;;4378946;32;20154;-69
2021/08/14 06:47:24;;;;;;;33.00;18.98;;;27.00;57.00;;;;;;4393245;32;20115;-69
2021/08/14 06:49:50;;;;;;;33.83;18.80;;;27.60;53.10;;;;;;4366807;32;20080;-70
2021/08/14 06:52:17;;;;;;;30.92;18.17;;;27.50;51.90;;;;;;4379114;32;20172;-70
2021/08/14 06:54:43;;;;;;;30.67;18.05;;;27.30;52.20;;;;;;4366843;32;20085;-70
2021/08/14 06:57:09;;;;;;;30.83;18.67;;;27.30;50.30;;;;;;4354508;32;20177;-70
2021/08/14 06:59:35;;;;;;;31.20;18.17;;;27.90;50.20;;;;;;4354236;32;20158;-70
2021/08/14 07:02:02;;;;;;;33.78;20.52;;;28.30;47.40;;;;;;4366359;32;20550;-70
2021/08/14 07:04:28;;;;;;;33.33;20.15;;;28.30;47.40;;;;;;4353997;32;20167;-70
2021/08/14 07:06:54;;;;;;;35.35;20.58;;;28.40;47.20;;;;;;4366327;32;20078;-70
2021/08/14 07:09:21;;;;;;;32.50;21.92;;;27.90;48.30;;;;;;4379195;32;20063;-69
2021/08/14 07:11:47;;;;;;;33.45;20.60;;;27.70;49.50;;;;;;4366615;32;20085;-69
2021/08/14 07:14:13;;;;;;;41.70;22.83;;;28.10;49.10;;;;;;4366519;32;20512;-70
2021/08/14 07:16:39;;;;;;;33.70;22.02;;;28.30;47.50;;;;;;4366199;32;20082;-70
2021/08/14 07:19:05;;;;;;;37.13;21.45;;;27.80;49.10;;;;;;4378553;32;20166;-70
2021/08/14 07:21:31;;;;;;;38.22;21.95;;;27.70;50.80;;;;;;4393212;32;20085;-70
2021/08/14 07:23:58;;;;;;;40.92;25.02;;;28.00;49.00;;;;;;4366495;32;20498;-70
2021/08/14 07:26:24;;;;;;;42.13;26.27;;;28.20;48.00;;;;;;4366306;32;20093;-70
2021/08/14 07:28:50;;;;;;;40.70;24.52;;;27.90;47.80;;;;;;4341513;32;20165;-70
2021/08/14 07:31:16;;;;;;;40.90;25.83;;;28.10;46.60;;;;;;4353570;32;20062;-70
2021/08/14 07:33:42;;;;;;;40.88;24.77;;;28.10;46.40;;;;;;4353823;32;20192;-70
2021/08/14 07:36:09;;;;;;;40.58;25.10;;;27.80;46.70;;;;;;4365948;32;20074;-70
2021/08/14 07:38:35;;;;;;;43.85;25.77;;;28.20;45.50;;;;;;4341269;32;20528;-70
2021/08/14 07:41:01;;;;;;;48.00;27.33;;;28.00;45.50;;;;;;4366065;32;20093;-70
2021/08/14 07:43:27;;;;;;;41.50;24.33;;;28.10;45.80;;;;;;4353421;32;20073;-70
2021/08/14 07:45:54;;;;;;;44.53;25.83;;;28.10;45.30;;;;;;4353506;32;20162;-70
2021/08/14 07:48:20;;;;;;;40.63;24.98;;;27.90;45.80;;;;;;4353380;32;20074;-70
2021/08/14 07:50:46;;;;;;;46.08;27.65;;;28.60;44.10;;;;;;4354033;32;20501;-70
2021/08/14 07:53:12;;;;;;;41.83;26.37;;;28.60;43.50;;;;;;4353365;32;20081;-70
2021/08/14 07:55:38;;;;;;;42.05;26.73;;;28.70;43.60;;;;;;4378255;32;20158;-69
2021/08/14 07:58:14;;;;;;;41.63;25.37;;;29.00;42.80;;;;;;4341064;32;20081;-71
2021/08/14 08:00:40;;;;;;;44.55;26.80;;;29.10;41.60;;;;;;4352997;32;20177;-70
2021/08/14 08:03:08;;;;;;;40.55;25.37;;;29.30;41.50;;;;;;4353070;32;20225;-70
2021/08/14 08:05:34;;;;;;;43.75;24.17;;;29.20;40.80;;;;;;4353781;32;20083;-70
2021/08/14 08:08:05;;;;;;;43.60;24.60;;;29.10;40.40;;;;;;4353378;32;20092;-71
2021/08/14 08:10:32;;;;;;;47.50;27.58;;;29.20;39.60;;;;;;4340922;32;20520;-71
2021/08/14 08:12:58;;;;;;;42.30;24.75;;;29.00;39.80;;;;;;4341574;32;20101;-70
2021/08/14 08:15:24;;;;;;;49.22;27.15;;;29.20;40.00;;;;;;4353225;32;20074;-70
2021/08/14 08:17:51;;;;;;;44.03;25.30;;;29.70;38.90;;;;;;4353274;32;20500;-70
2021/08/14 08:20:17;;;;;;;37.85;23.08;;;29.50;37.50;;;;;;4353114;32;20054;-70
2021/08/14 08:22:43;;;;;;;40.90;22.65;;;29.70;35.70;;;;;;4365489;32;20070;-70
2021/08/14 08:25:14;;;;;;;36.47;21.23;;;29.20;36.00;;;;;;4353409;32;20100;-70
2021/08/14 08:27:42;;;;;;;39.53;23.35;;;28.60;38.10;;;;;;4341821;32;20451;-73
2021/08/14 08:30:09;;;;;;;36.58;20.73;;;29.30;37.30;;;;;;4340817;32;20074;-70
2021/08/14 08:32:36;;;;;;;38.53;24.50;;;29.70;36.60;;;;;;4340747;32;20070;-70
2021/08/14 08:35:04;;;;;;;37.85;21.67;;;29.10;37.80;;;;;;4353319;32;20451;-70
2021/08/14 08:37:31;;;;;;;34.40;21.75;;;29.30;38.10;;;;;;4365559;32;20081;-70
2021/08/14 08:39:57;;;;;;;37.75;23.20;;;29.60;37.00;;;;;;4353203;32;20070;-68
2021/08/14 08:42:23;;;;;;;35.08;20.12;;;29.70;37.10;;;;;;4353058;32;20077;-70
2021/08/14 08:44:49;;;;;;;34.95;19.80;;;29.60;36.00;;;;;;4377869;32;20169;-70
2021/08/14 08:47:17;;;;;;;33.50;20.90;;;29.80;36.70;;;;;;4365735;32;20066;-69
2021/08/14 08:50:09;;;;;;;40.33;20.15;;;30.10;35.40;;;;;;4341013;32;20065;-70
2021/08/14 08:52:36;;;;;;;32.78;17.87;;;29.90;28.60;;;;;;4349561;32;20508;-70
2021/08/14 08:55:03;;;;;;;31.75;16.65;;;30.00;26.80;;;;;;4352913;32;20072;-71
2021/08/14 08:57:29;;;;;;;31.65;15.98;;;30.00;25.60;;;;;;4340599;32;20070;-70
2021/08/14 08:59:57;;;;;;;32.45;17.45;;;30.40;25.30;;;;;;4365186;32;20097;-70
2021/08/14 09:02:28;;;;;;;33.35;16.58;;;30.60;25.40;;;;;;4377084;32;20101;-70
2021/08/14 09:05:21;;;;;;;34.42;17.35;;;30.70;26.00;;;;;;4352797;32;20105;-70
2021/08/14 09:07:48;;;;;;;29.90;17.10;;;30.80;23.10;;;;;;4375069;32;20073;-70
2021/08/14 09:10:23;;;;;;;34.67;17.92;;;30.40;23.30;;;;;;4352822;32;20451;-69
2021/08/14 09:12:49;;;;;;;32.35;15.57;;;30.70;23.20;;;;;;4341896;32;20090;-70
2021/08/14 09:15:30;;;;;;;26.65;14.27;;;30.70;23.00;;;;;;4340525;32;20066;-70
2021/08/14 09:18:01;;;;;;;31.60;16.98;;;31.00;22.70;;;;;;4367001;32;20150;-70
2021/08/14 09:20:27;;;;;;;34.58;16.23;;;30.30;23.20;;;;;;4352641;32;20089;-70
2021/08/14 09:23:10;;;;;;;30.90;15.93;;;30.80;22.70;;;;;;4352500;32;20080;-71
2021/08/14 09:25:41;;;;;;;33.83;16.70;;;30.50;22.90;;;;;;4341528;32;20074;-70
2021/08/14 09:28:08;;;;;;;34.10;16.48;;;31.10;22.40;;;;;;4391553;32;20161;-68
2021/08/14 09:31:07;;;;;;;30.30;16.77;;;31.00;22.20;;;;;;4341074;32;20178;-70
2021/08/14 09:33:35;;;;;;;28.95;15.60;;;31.00;22.20;;;;;;4336812;32;20101;-71
2021/08/14 09:36:08;;;;;;;33.78;16.40;;;31.50;21.40;;;;;;4340805;32;20092;-70
2021/08/14 09:38:52;;;;;;;29.50;15.88;;;31.60;21.70;;;;;;4365319;32;20157;-70
2021/08/14 09:41:23;;;;;;;33.03;16.45;;;31.20;22.50;;;;;;4354117;32;20077;-70
2021/08/14 09:43:51;;;;;;;32.10;16.65;;;31.30;22.90;;;;;;4340854;32;20081;-68
2021/08/14 09:46:17;;;;;;;31.62;16.48;;;31.10;21.70;;;;;;4352733;32;20081;-69
2021/08/14 09:48:52;;;;;;;33.90;18.23;;;31.40;22.00;;;;;;4377281;32;20157;-70
2021/08/14 09:51:32;;;;;;;31.95;15.48;;;31.10;21.90;;;;;;4342074;32;20143;-69
2021/08/14 09:54:00;;;;;;;33.25;15.45;;;31.10;21.90;;;;;;4365595;32;20161;-70
2021/08/14 09:56:27;;;;;;;32.22;14.98;;;31.00;21.80;;;;;;4340059;32;20153;-69
2021/08/14 09:58:54;;;;;;;32.50;16.33;;;30.60;22.20;;;;;;4340588;32;20168;-70
2021/08/14 10:01:20;;;;;;;31.37;15.05;;;30.60;22.20;;;;;;4364266;32;20074;-70
2021/08/14 10:03:46;;;;;;;32.65;17.67;;;30.80;22.00;;;;;;4364376;32;20129;-70
2021/08/14 10:06:14;;;;;;;32.35;17.25;;;31.60;21.30;;;;;;4364595;32;20504;-70
2021/08/14 10:08:40;;;;;;;34.65;17.27;;;31.40;21.50;;;;;;4353170;32;20092;-70
2021/08/14 10:11:11;;;;;;;33.67;16.87;;;31.00;22.30;;;;;;4367080;32;20062;-70
2021/08/14 10:13:41;;;;;;;30.75;14.85;;;31.00;22.30;;;;;;4355334;32;20075;-70
2021/08/14 10:16:12;;;;;;;30.40;16.70;;;31.70;22.30;;;;;;4367197;32;20500;-70
2021/08/14 10:18:44;;;;;;;34.25;16.87;;;31.60;21.60;;;;;;4342894;32;20489;-70
2021/08/14 10:21:12;;;;;;;32.38;15.40;;;32.20;20.90;;;;;;4355273;32;20157;-70
2021/08/14 10:23:39;;;;;;;36.08;17.30;;;31.90;21.10;;;;;;4355333;32;20089;-69
2021/08/14 10:26:09;;;;;;;30.92;15.30;;;31.20;21.70;;;;;;4354838;32;20066;-70
2021/08/14 10:28:53;;;;;;;29.45;14.73;;;30.90;21.90;;;;;;4367566;32;20233;-70
2021/08/14 10:31:31;;;;;;;32.78;16.08;;;31.40;22.00;;;;;;4343314;32;20078;-70
2021/08/14 10:34:10;;;;;;;32.13;16.10;;;31.70;20.70;;;;;;4367121;32;20085;-70
2021/08/14 10:36:37;;;;;;;29.17;14.68;;;31.00;21.80;;;;;;4380897;32;20107;-70
2021/08/14 10:39:30;;;;;;;29.48;15.02;;;31.00;22.10;;;;;;4366671;32;20081;-69
2021/08/14 10:42:02;;;;;;;31.10;16.27;;;31.20;21.30;;;;;;4367120;32;20074;-70
2021/08/14 10:44:36;;;;;;;29.42;14.98;;;31.70;21.50;;;;;;4342947;32;20084;-70
2021/08/14 10:47:04;;;;;;;26.73;14.93;;;32.10;20.70;;;;;;4354261;32;20551;-70
2021/08/14 10:49:34;;;;;;;32.20;15.15;;;31.40;21.40;;;;;;4355004;32;20170;-70
2021/08/14 10:52:02;;;;;;;26.48;13.02;;;31.70;21.20;;;;;;4393634;32;20062;-70
2021/08/14 10:54:28;;;;;;;30.10;15.88;;;31.60;21.00;;;;;;4379885;32;20172;-70
2021/08/14 10:56:59;;;;;;;29.60;14.63;;;31.30;21.10;;;;;;4393334;32;20554;-71
2021/08/14 10:59:38;;;;;;;31.73;16.42;;;30.80;21.50;;;;;;4342636;32;20069;-70
2021/08/14 11:02:11;;;;;;;29.50;15.02;;;31.20;21.40;;;;;;4378849;32;20094;-70
2021/08/14 11:04:44;;;;;;;28.70;15.13;;;31.70;21.80;;;;;;4366737;32;20074;-70
2021/08/14 11:07:19;;;;;;;31.67;15.50;;;31.60;21.50;;;;;;4378886;32;20058;-69
2021/08/14 11:09:58;;;;;;;30.52;14.10;;;31.70;21.40;;;;;;4378753;32;20456;-70
2021/08/14 11:12:30;;;;;;;26.17;13.77;;;31.20;21.60;;;;;;4392809;32;20064;-70
2021/08/14 11:15:22;;;;;;;36.47;16.92;;;31.50;21.60;;;;;;4379193;32;20175;-69
2021/08/14 11:17:59;;;;;;;31.65;14.75;;;31.30;21.80;;;;;;4369194;32;20074;-70
2021/08/14 11:20:26;;;;;;;34.20;15.82;;;31.10;22.60;;;;;;4355066;32;20235;-70
2021/08/14 11:22:59;;;;;;;26.70;14.75;;;31.30;23.30;;;;;;4392662;32;20212;-70
2021/08/14 11:25:36;;;;;;;28.35;15.68;;;31.00;24.10;;;;;;4354770;32;20073;-69
2021/08/14 11:28:04;;;;;;;33.78;15.40;;;31.10;25.50;;;;;;4343752;32;20085;-69
2021/08/14 11:30:34;;;;;;;34.78;17.00;;;31.40;25.70;;;;;;4353702;32;20158;-71
2021/08/14 11:33:05;;;;;;;31.80;17.52;;;31.60;26.10;;;;;;4392742;32;20432;-70
2021/08/14 11:35:33;;;;;;;35.58;17.50;;;31.60;25.90;;;;;;4355447;32;20163;-70
2021/08/14 11:38:01;;;;;;;28.92;15.23;;;31.60;26.50;;;;;;4341751;32;20084;-70
2021/08/14 11:40:33;;;;;;;31.35;17.65;;;31.40;27.10;;;;;;4354569;32;20084;-70
2021/08/14 11:43:15;;;;;;;39.40;17.37;;;31.60;27.50;;;;;;4366686;32;20069;-70
2021/08/14 11:45:44;;;;;;;33.67;17.23;;;31.40;27.20;;;;;;4344593;32;20489;-70
2021/08/14 11:48:12;;;;;;;30.98;16.87;;;31.10;27.90;;;;;;4354242;32;20128;-71
2021/08/14 11:50:47;;;;;;;31.17;17.17;;;30.90;29.00;;;;;;4342145;32;20066;-70
2021/08/14 11:53:25;;;;;;;12.10;7.95;;;30.60;28.80;;;;;;4341867;32;20084;-70
2021/08/14 11:56:07;;;;;;;26.73;13.10;;;30.20;30.00;;;;;;4353777;32;20166;-70
2021/08/14 11:58:33;;;;;;;23.83;13.13;;;30.00;30.90;;;;;;4353809;32;20507;-69
2021/08/14 12:00:59;;;;;;;29.80;18.30;;;30.30;31.10;;;;;;4353192;32;20081;-70
2021/08/14 12:03:26;;;;;;;27.52;16.17;;;30.60;30.60;;;;;;4377895;32;20523;-70
2021/08/14 12:05:52;;;;;;;33.05;17.15;;;30.70;30.30;;;;;;4329121;32;20165;-70
2021/08/14 12:08:31;;;;;;;28.58;15.35;;;31.20;29.70;;;;;;4353438;32;20097;-70
2021/08/14 12:10:59;;;;;;;32.67;16.33;;;31.40;28.90;;;;;;4341515;32;20508;-70
2021/08/14 12:13:25;;;;;;;31.37;18.42;;;31.50;28.90;;;;;;4353373;32;20159;-70
2021/08/14 12:15:51;;;;;;;25.37;14.93;;;31.50;30.10;;;;;;4365581;32;20070;-69
2021/08/14 12:18:34;;;;;;;31.75;15.80;;;31.20;31.40;;;;;;4365699;32;20459;-70
2021/08/14 12:21:01;;;;;;;27.40;13.77;;;31.00;38.10;;;;;;4341044;32;20500;-70
2021/08/14 12:23:32;;;;;;;13.90;7.90;;;30.20;41.70;;;;;;4365925;32;20534;-70
2021/08/14 12:26:03;;;;;;;20.92;12.57;;;29.90;42.90;;;;;;4353859;32;20425;-69
2021/08/14 12:28:32;;;;;;;18.62;12.05;;;29.70;44.20;;;;;;4365539;32;20085;-70
2021/08/14 12:31:00;;;;;;;16.05;11.02;;;30.10;43.60;;;;;;4353051;32;20081;-70
2021/08/14 12:33:31;;;;;;;17.27;11.43;;;30.20;43.60;;;;;;4353541;32;20089;-70